Sault Ste. Marie, Ontario

4:05 PM EDT on August 24, 2016 (GMT -0400)
IONSAULT2 | | Change Station

Elev 684 ft 46.55 °N, 84.41 °W | Updated 21 hours ago

Rain
Rain
70 °F
Feels Like 70 °F
N
6
Wind Variable Wind from SSW
Gusts 11 mph

Today
High -- | Low -- °F
--% Chance of Precip.
Yesterday
High -- | Low -- °F
Precip. -- in
Pressure 29.90 in
Visibility 6.0 miles
Clouds Overcast 500 ft
Dew Point 66 °F
Humidity 90%
Rainfall in
Snow Depth Not available.
6:48 AM 8:30 PM
Waning Gibbous, 54% visible
METAR KCIU 241956Z AUTO VRB04KT 6SM BR OVC005 20/19 A2984 RMK AO2 CIG 003V007 SLP125 T02000194 TSNO
Pressure 29.90 in
Visibility 6.0 miles
Clouds Overcast 500 ft
Dew Point 66 °F
Humidity 90%
Rainfall in
Snow Depth Not available.
6:48 AM 8:30 PM
Waning Gibbous, 54% visible
METAR KCIU 241956Z AUTO VRB04KT 6SM BR OVC005 20/19 A2984 RMK AO2 CIG 003V007 SLP125 T02000194 TSNO

10-Day Weather Forecast

Almanac

Astronomy

Aug. 24, 2016 Rise Set
Actual Time
Civil Twilight
Nautical Twilight
Astronomical Twilight
Moon
Length of Visible Light
Length of Day
Tomorrow will be .
, % of the Moon is Illuminated

Today's Extremes

Country Highs Country Lows

Community

WunderPhotos

Upload Photos

1,934,696 photos uploaded!

WunderBlog® & News

Nearby

Air Quality

  Air Quality AQ Index Pollutant
Not available.

Snow Depth

Station Depth Elevation

Earthquake Activity

City Distance Mag. Time & Date
Minimum magnitude displayed is 2.5.

Coastal Water Temperatures

Place Temperature

Stations

Nearby Weather Stations

Station Location Temp. Windchill Dew Point Humidity Wind Precip. Elev Updated Type
                   

Watches & Warnings

There are currently no watches in effect.